Chautauqua County-Jamestown Airport
KJHW : now visible

Airfield :











YOU CAN JOIN US ON...

 
LOGIN :

Register | Disclaimer

   EN    FR    IT 

 









Legend :    VFR   Marginal VFR   IFR   Intensive IFR   Very Intensive IFR
Visi :
Ceiling :
>= 8 km
>= 3000ft
5 to 8 km
1000 to 3000 ft
1500m to 5 km
500 to 1000 ft
800 to 1500m
200 to 500 ft
< 800m
< 200 ft
Symbols :   Thunderstorms  Fog  Heavy snow  Heavy precipitations  Wind > 20 kt






- Airport Elevation : 1723 ft


KJHW - Chautauqua County-Jamestown

CURRENT METAR :
  • 232356Z AUTO 18003KT 7SM -RA FEW012 OVC019 06/05 A3001 RMK AO2 SLP178 P0000 60001 T00560050 10072 20056 53005

EXPIRED METARs :
  • 232344Z AUTO 19003KT 10SM -RA FEW009 BKN022 OVC033 06/05 A3001 RMK AO2 P0000
  • 232331Z AUTO 19004KT 10SM -RA SCT011 BKN022 OVC033 06/05 A3001 RMK AO2 P0000
  • 232322Z AUTO 20005KT 9SM -RA FEW009 BKN035 OVC045 06/05 A3001 RMK AO2 P0000
  • 232312Z AUTO 19003KT 9SM -RA FEW009 BKN012 OVC045 06/05 A3001 RMK AO2 P0000
  • 232256Z AUTO 20003KT 10SM -RA OVC045 06/05 A3001 RMK AO2 SLP176 P0000 T00560050
  • 232156Z AUTO 21003KT 10SM -RA FEW005 SCT025 OVC070 06/06 A3000 RMK AO2 RAE23B39 SLP172 P0000 T00610056
  • 232148Z AUTO 20003KT 10SM -RA FEW003 BKN023 OVC075 06/06 A2999 RMK AO2 RAE23B39 P0000
  • 232116Z AUTO 24004KT 10SM -RA BKN025 OVC034 06/06 A3000 RMK AO2 P0000

TAF KJHW
Valid from the 24 at 00:00 until the 25 at 00:00 UTC


232320Z 2400/2424 00000KT 6SM BR OVC040
TEMPO 2400/2404 5SM -SHRA BR BKN025
FM240400 21004KT P6SM BKN025
FM241900 17006KT P6SM OVC020
FM242100 15004KT 4SM -RA BR OVC012
FM242300 12005KT 4SM -RA BR OVC003
KZOB FIR / North America



MET'MAP, your aeronautical weather chart ! - Copyright ORBIFLY December 2007 - Disclaimer

ORBIFLY MET'MAP TEAM :

Programming & Development : Alexandra Zaïnal
Concept & original design : Baudouin d'Aumeries
Assistance for programming : Marc-Olivier Méhu
Technical & hardware support : Manuel Goepfert

Contact : metmap@orbifly.com




SOURCES & CREDITS :

   NOAA       Earth
Advisory